Time;durP1;ratioP1;P1;durP2;ratioP2;P2;SDS_P1;SDS_P2;PMS_P1;PMS_P2;Temp;Humidity;BMP_temperature;BMP_pressure;BME280_temperature;BME280_humidity;BME280_pressure;Samples;Min_cycle;Max_cycle;Signal;HPM_P1;HPM_P2
2022/09/05 00:00:04;;;;;;;1999.90;999.90;;;;;;;-144.65;100.00;64500.88;5035012;28;20541;-78
2022/09/05 00:02:50;;;;;;;1999.90;999.90;;;;;;;-144.65;100.00;64500.88;5033165;28;20029;-77
2022/09/05 00:05:37;;;;;;;1999.90;999.90;;;;;;;-144.65;100.00;64500.88;5034507;28;20064;-78
2022/09/05 00:08:26;;;;;;;1999.90;999.90;;;;;;;-144.65;100.00;64500.88;5032818;28;20442;-78
2022/09/05 00:11:10;;;;;;;1999.90;999.90;;;;;;;-144.65;100.00;64500.88;5033832;28;20033;-77
2022/09/05 00:13:43;;;;;;;1999.90;999.90;;;;;;;-144.65;100.00;64500.88;5035081;28;20053;-78
2022/09/05 00:16:26;;;;;;;1999.90;999.90;;;;;;;-144.65;100.00;64500.88;5034735;28;20428;-78
2022/09/05 00:18:59;;;;;;;1999.90;999.90;;;;;;;-144.65;100.00;64500.88;5036565;28;20092;-78
2022/09/05 00:22:01;;;;;;;1999.90;999.90;;;;;;;-144.65;100.00;64500.88;5036650;28;20018;-78
2022/09/05 00:24:29;;;;;;;1999.90;999.90;;;;;;;-144.65;100.00;64500.88;5027596;28;20068;-77
2022/09/05 00:27:15;;;;;;;1999.90;999.90;;;;;;;-144.65;100.00;64500.88;5012252;28;20060;-77
2022/09/05 00:29:59;;;;;;;1999.90;999.90;;;;;;;-144.65;100.00;64500.88;5013895;28;20014;-76
2022/09/05 00:32:48;;;;;;;1999.90;999.90;;;;;;;-144.65;100.00;64500.88;5014632;28;20081;-78
2022/09/05 00:35:22;;;;;;;1999.90;999.90;;;;;;;-144.65;100.00;64500.88;5018425;28;20026;-76
2022/09/05 00:37:50;;;;;;;1999.90;999.90;;;;;;;-144.65;100.00;64500.88;5016633;28;20022;-77
2022/09/05 00:40:39;;;;;;;1999.90;999.90;;;;;;;-144.65;100.00;64500.88;5013499;28;20026;-78
2022/09/05 00:43:17;;;;;;;1999.90;999.90;;;;;;;-144.65;100.00;64500.88;5013665;28;20036;-77
2022/09/05 00:45:53;;;;;;;1999.90;999.90;;;;;;;-144.65;100.00;64500.88;5013136;28;20145;-78
2022/09/05 00:48:33;;;;;;;1999.90;999.90;;;;;;;-144.65;100.00;64500.88;5013225;28;20037;-78
2022/09/05 00:51:29;;;;;;;1999.90;999.90;;;;;;;-144.65;100.00;64500.88;5008204;28;20064;-78
2022/09/05 00:54:00;;;;;;;1999.90;999.90;;;;;;;-144.65;100.00;64500.88;5013628;28;20383;-78
2022/09/05 00:56:39;;;;;;;1999.90;999.90;;;;;;;-144.65;100.00;64500.88;5014247;28;20125;-78
2022/09/05 00:59:41;;;;;;;1999.90;999.90;;;;;;;-144.65;100.00;64500.88;5017542;28;20022;-78
2022/09/05 01:02:24;;;;;;;1999.90;999.90;;;;;;;-144.65;100.00;64500.88;5014633;28;20108;-77
2022/09/05 01:05:07;;;;;;;1999.90;999.90;;;;;;;-144.65;100.00;64500.88;5013314;28;20076;-77
2022/09/05 01:08:14;;;;;;;1999.90;999.90;;;;;;;-144.65;100.00;64500.88;5013083;28;20406;-79
2022/09/05 01:11:00;;;;;;;1999.90;999.90;;;;;;;-144.65;100.00;64500.88;4935503;29;20501;-78
2022/09/05 01:14:02;;;;;;;1999.90;999.90;;;;;;;-144.65;100.00;64500.88;5011496;28;20072;-76
2022/09/05 01:16:52;;;;;;;1999.90;999.90;;;;;;;-144.65;100.00;64500.88;4976209;28;20137;-77
2022/09/05 01:19:59;;;;;;;1999.90;999.90;;;;;;;-144.65;100.00;64500.88;5016692;28;20393;-78
2022/09/05 01:22:47;;;;;;;1999.90;999.90;;;;;;;-144.65;100.00;64500.88;5003301;28;20037;-78
2022/09/05 01:25:24;;;;;;;1999.90;999.90;;;;;;;-144.65;100.00;64500.88;5031743;28;20033;-78
2022/09/05 01:28:14;;;;;;;1999.90;999.90;;;;;;;-144.65;100.00;64500.88;5033475;28;20040;-76
2022/09/05 01:31:12;;;;;;;1999.90;999.90;;;;;;;-144.65;100.00;64500.88;5033432;28;20076;-77
2022/09/05 01:33:46;;;;;;;1999.90;999.90;;;;;;;-144.65;100.00;64500.88;5032365;28;20044;-78
2022/09/05 01:36:33;;;;;;;1999.90;999.90;;;;;;;-144.65;100.00;64500.88;5032932;28;20037;-77
2022/09/05 01:39:32;;;;;;;1999.90;999.90;;;;;;;-144.65;100.00;64500.88;5031518;28;20033;-78
2022/09/05 01:42:28;;;;;;;1999.90;999.90;;;;;;;-144.65;100.00;64500.88;5032878;28;20030;-78
2022/09/05 01:45:18;;;;;;;1999.90;999.90;;;;;;;-144.65;100.00;64500.88;5032360;28;20029;-77
2022/09/05 01:47:55;;;;;;;1999.90;999.90;;;;;;;-144.65;100.00;64500.88;5030637;28;20075;-78
2022/09/05 01:50:48;;;;;;;1999.90;999.90;;;;;;;-144.65;100.00;64500.88;5030964;28;20053;-79
2022/09/05 01:53:37;;;;;;;1999.90;999.90;;;;;;;-144.65;100.00;64500.88;5029190;28;20045;-78
2022/09/05 01:56:32;;;;;;;1999.90;999.90;;;;;;;-144.65;100.00;64500.88;5031395;28;20120;-78
2022/09/05 01:59:19;;;;;;;1999.90;999.90;;;;;;;-144.65;100.00;64500.88;5031514;28;20033;-77
2022/09/05 02:02:28;;;;;;;1999.90;999.90;;;;;;;-144.65;100.00;64500.88;5030770;28;20554;-78
2022/09/05 02:05:10;;;;;;;1999.90;999.90;;;;;;;-144.65;100.00;64500.88;5033520;28;20037;-77
2022/09/05 02:08:08;;;;;;;1999.90;999.90;;;;;;;-144.65;100.00;64500.88;5033287;28;20061;-77
2022/09/05 02:10:58;;;;;;;1999.90;999.90;;;;;;;-144.65;100.00;64500.88;5033521;28;20120;-78
2022/09/05 02:13:35;;;;;;;1999.90;999.90;;;;;;;-144.65;100.00;64500.88;5031804;28;20026;-77
2022/09/05 02:16:00;;;;;;;1999.90;999.90;;;;;;;-144.65;100.00;64500.88;5032346;28;20394;-77
2022/09/05 02:18:46;;;;;;;1999.90;999.90;;;;;;;-144.65;100.00;64500.88;5032740;28;20100;-78
2022/09/05 02:21:22;;;;;;;;;;;;;;;-144.65;100.00;64500.88;5034097;28;20025;-77
2022/09/05 02:23:59;;;;;;;;;;;;;;;-144.65;100.00;64500.88;5033294;28;19991;-79
2022/09/05 02:26:33;;;;;;;1999.90;999.90;;;;;;;-144.65;100.00;64500.88;5033240;28;20370;-78
2022/09/05 02:29:37;;;;;;;1999.90;999.90;;;;;;;-144.65;100.00;64500.88;5029907;28;20037;-78
2022/09/05 02:32:16;;;;;;;1999.90;999.90;;;;;;;-144.65;100.00;64500.88;5020476;28;20056;-78
2022/09/05 02:35:02;;;;;;;1999.90;999.90;;;;;;;-144.65;100.00;64500.88;5035743;28;20025;-78
2022/09/05 02:37:33;;;;;;;1999.90;999.90;;;;;;;-144.65;100.00;64500.88;5016301;28;20022;-79
2022/09/05 02:40:08;;;;;;;1999.90;999.90;;;;;;;-144.65;100.00;64500.88;4998908;28;20044;-77
2022/09/05 02:42:43;;;;;;;1999.90;999.90;;;;;;;-144.65;100.00;64500.88;5015677;28;20401;-79
2022/09/05 02:45:26;;;;;;;1999.90;999.90;;;;;;;-144.65;100.00;64500.88;5018184;28;20376;-77
2022/09/05 02:48:18;;;;;;;1999.90;999.90;;;;;;;-144.65;100.00;64500.88;5023725;28;20028;-77
2022/09/05 02:51:02;;;;;;;1999.90;999.90;;;;;;;-144.65;100.00;64500.88;5035928;28;20041;-78
2022/09/05 02:53:29;;;;;;;1999.90;999.90;;;;;;;-144.65;100.00;64500.88;5036300;28;20040;-78
2022/09/05 02:55:57;;;;;;;1999.90;999.90;;;;;;;-144.65;100.00;64500.88;5034963;28;20022;-77
2022/09/05 02:58:28;;;;;;;1999.90;999.90;;;;;;;-144.65;100.00;64500.88;5035347;28;20025;-78
2022/09/05 03:01:07;;;;;;;1999.90;999.90;;;;;;;-144.65;100.00;64500.88;5036299;28;20016;-78
2022/09/05 03:03:37;;;;;;;1999.90;999.90;;;;;;;-144.65;100.00;64500.88;5035787;28;20034;-76
2022/09/05 03:06:21;;;;;;;1999.90;999.90;;;;;;;-144.65;100.00;64500.88;5036497;28;20712;-77
2022/09/05 03:09:14;;;;;;;1999.90;999.90;;;;;;;-144.65;100.00;64500.88;5036014;28;20390;-78
2022/09/05 03:12:10;;;;;;;1999.90;999.90;;;;;;;-144.65;100.00;64500.88;5036056;28;20112;-78
2022/09/05 03:15:07;;;;;;;1999.90;999.90;;;;;;;-144.65;100.00;64500.88;5037122;28;20033;-78
2022/09/05 03:17:48;;;;;;;1999.90;999.90;;;;;;;-144.65;100.00;64500.88;5049314;28;20025;-78
2022/09/05 03:20:42;;;;;;;1999.90;999.90;;;;;;;-144.65;100.00;64500.88;5055403;28;20037;-77
2022/09/05 03:23:13;;;;;;;1999.90;999.90;;;;;;;-144.65;100.00;64500.88;5056801;28;20482;-79
2022/09/05 03:26:09;;;;;;;1999.90;999.90;;;;;;;-144.65;100.00;64500.88;5041150;28;20032;-78
2022/09/05 03:28:40;;;;;;;;;;;;;;;-144.65;100.00;64500.88;5061520;28;20033;-78
2022/09/05 03:31:23;;;;;;;1999.90;999.90;;;;;;;-144.65;100.00;64500.88;5040170;28;19920;-76
2022/09/05 03:34:39;;;;;;;1999.90;999.90;;;;;;;-144.65;100.00;64500.88;5057650;28;20104;-79
2022/09/05 03:37:45;;;;;;;1999.90;999.90;;;;;;;-144.65;100.00;64500.88;5060744;28;20039;-78
2022/09/05 03:40:23;;;;;;;1999.90;999.90;;;;;;;-144.65;100.00;64500.88;5044467;28;20043;-78
2022/09/05 03:43:18;;;;;;;1999.90;999.90;;;;;;;-144.65;100.00;64500.88;5044136;28;21584;-80
2022/09/05 03:46:05;;;;;;;1999.90;999.90;;;;;;;-144.65;100.00;64500.88;5024253;28;20048;-79
2022/09/05 03:48:40;;;;;;;1999.90;999.90;;;;;;;-144.65;100.00;64500.88;5054042;28;20053;-80
2022/09/05 03:51:06;;;;;;;;;;;;;;;-144.65;100.00;64500.88;5051572;28;20465;-80
2022/09/05 03:53:34;;;;;;;;;;;;;;;-144.65;100.00;64500.88;5069657;28;19920;-79
2022/09/05 03:56:37;;;;;;;1999.90;999.90;;;;;;;-144.65;100.00;64500.88;5061786;28;19913;-80
2022/09/05 03:59:14;;;;;;;1999.90;999.90;;;;;;;-144.65;100.00;64500.88;5058421;28;20047;-78
2022/09/05 04:02:15;;;;;;;1999.90;999.90;;;;;;;-144.65;100.00;64500.88;5032439;28;20033;-78
2022/09/05 04:04:40;;;;;;;1999.90;999.90;;;;;;;-144.65;100.00;64500.88;4974208;28;20042;-77
2022/09/05 04:07:15;;;;;;;1999.90;999.90;;;;;;;-144.65;100.00;64500.88;5017113;28;20038;-78
2022/09/05 04:10:06;;;;;;;1999.90;999.90;;;;;;;-144.65;100.00;64500.88;5016713;28;20029;-78
2022/09/05 04:12:37;;;;;;;1999.90;999.90;;;;;;;-144.65;100.00;64500.88;5018125;28;20037;-77
2022/09/05 04:15:10;;;;;;;1999.90;999.90;;;;;;;-144.65;100.00;64500.88;5018517;28;20030;-77
2022/09/05 04:17:39;;;;;;;1999.90;999.90;;;;;;;-144.65;100.00;64500.88;5022192;28;20034;-76
2022/09/05 04:20:14;;;;;;;1999.90;999.90;;;;;;;-144.65;100.00;64500.88;5016762;28;20026;-77
2022/09/05 04:23:09;;;;;;;1999.90;999.90;;;;;;;-144.65;100.00;64500.88;5014283;28;20030;-76
2022/09/05 04:25:52;;;;;;;1999.90;999.90;;;;;;;-144.65;100.00;64500.88;5014876;28;20038;-74
2022/09/05 04:28:58;;;;;;;1999.90;999.90;;;;;;;-144.65;100.00;64500.88;5014916;28;20117;-77
2022/09/05 04:31:38;;;;;;;1999.90;999.90;;;;;;;-144.65;100.00;64500.88;5017502;28;20025;-78
2022/09/05 04:34:23;;;;;;;1999.90;999.90;;;;;;;-144.65;100.00;64500.88;5018105;28;20034;-77
2022/09/05 04:37:00;;;;;;;1999.90;999.90;;;;;;;-144.65;100.00;64500.88;4980886;28;20137;-77
2022/09/05 04:39:27;;;;;;;1999.90;999.90;;;;;;;-144.65;100.00;64500.88;5016915;28;20040;-77
2022/09/05 04:42:15;;;;;;;1999.90;999.90;;;;;;;-144.65;100.00;64500.88;5014772;28;20026;-77
2022/09/05 04:44:50;;;;;;;1999.90;999.90;;;;;;;-144.65;100.00;64500.88;5028021;28;20033;-76
2022/09/05 04:47:29;;;;;;;1999.90;999.90;;;;;;;-144.65;100.00;64500.88;5027339;28;20033;-77
2022/09/05 04:50:05;;;;;;;1999.90;999.90;;;;;;;-144.65;100.00;64500.88;5052128;28;20033;-76
2022/09/05 04:52:36;;;;;;;1999.90;999.90;;;;;;;-144.65;100.00;64500.88;5039455;28;20022;-74
2022/09/05 04:55:16;;;;;;;1999.90;999.90;;;;;;;-144.65;100.00;64500.88;5020300;28;20018;-77
2022/09/05 04:57:47;;;;;;;1999.90;999.90;;;;;;;-144.65;100.00;64500.88;5020205;28;20052;-76
2022/09/05 05:00:41;;;;;;;1999.90;999.90;;;;;;;-144.65;100.00;64500.88;5034791;28;20026;-78
2022/09/05 05:03:16;;;;;;;1999.90;999.90;;;;;;;-144.65;100.00;64500.88;5030739;28;20093;-78
2022/09/05 05:05:48;;;;;;;1999.90;999.90;;;;;;;-144.65;100.00;64500.88;5044320;28;20010;-74
2022/09/05 05:08:23;;;;;;;1999.90;999.90;;;;;;;-144.65;100.00;64500.88;5038000;28;20124;-77
2022/09/05 05:11:07;;;;;;;1999.90;999.90;;;;;;;-144.65;100.00;64500.88;5030016;28;20032;-77
2022/09/05 05:13:42;;;;;;;1999.90;999.90;;;;;;;-144.65;100.00;64500.88;5021478;28;20029;-77
2022/09/05 05:16:20;;;;;;;1999.90;999.90;;;;;;;-144.65;100.00;64500.88;5019868;28;20030;-75
2022/09/05 05:18:52;;;;;;;1999.90;999.90;;;;;;;-144.65;100.00;64500.88;5016510;28;20414;-78
2022/09/05 05:21:24;;;;;;;1999.90;999.90;;;;;;;-144.65;100.00;64500.88;5002781;28;20442;-78
2022/09/05 05:23:59;;;;;;;1999.90;999.90;;;;;;;-144.65;100.00;64500.88;5021102;28;20038;-78
2022/09/05 05:26:34;;;;;;;1999.90;999.90;;;;;;;-144.65;100.00;64500.88;5022929;28;20040;-79
2022/09/05 05:29:07;;;;;;;1999.90;999.90;;;;;;;-144.65;100.00;64500.88;5003894;28;20033;-77
2022/09/05 05:31:38;;;;;;;1999.90;999.90;;;;;;;-144.65;100.00;64500.88;5017188;28;20478;-78
2022/09/05 05:34:26;;;;;;;1999.90;999.90;;;;;;;-144.65;100.00;64500.88;4999860;28;20026;-77
2022/09/05 05:37:01;;;;;;;1999.90;999.90;;;;;;;-144.65;100.00;64500.88;4999298;28;20479;-73
2022/09/05 05:39:29;;;;;;;1999.90;999.90;;;;;;;-144.65;100.00;64500.88;5011151;28;20022;-72
2022/09/05 05:41:56;;;;;;;1999.90;999.90;;;;;;;-144.65;100.00;64500.88;5011065;28;20033;-74
2022/09/05 05:44:32;;;;;;;1999.90;999.90;;;;;;;-144.65;100.00;64500.88;5011278;28;20030;-72
2022/09/05 05:47:05;;;;;;;1999.90;999.90;;;;;;;-144.65;100.00;64500.88;5010748;28;20514;-72
2022/09/05 05:49:52;;;;;;;1999.90;999.90;;;;;;;-144.65;100.00;64500.88;5012678;28;20041;-72
2022/09/05 05:52:36;;;;;;;1999.90;999.90;;;;;;;-144.65;100.00;64500.88;4976498;28;20085;-72
2022/09/05 05:55:53;;;;;;;1999.90;999.90;;;;;;;-144.65;100.00;64500.88;4994643;28;20050;-74
2022/09/05 05:58:36;;;;;;;1999.90;999.90;;;;;;;-144.65;100.00;64500.88;4930541;29;20032;-72
2022/09/05 06:01:18;;;;;;;1999.90;999.90;;;;;;;-144.65;100.00;64500.88;5000523;28;20041;-73
2022/09/05 06:04:08;;;;;;;1999.90;999.90;;;;;;;-144.65;100.00;64500.88;5010919;28;20093;-72
2022/09/05 06:06:39;;;;;;;1999.90;999.90;;;;;;;-144.65;100.00;64500.88;4993840;28;20029;-73
2022/09/05 06:09:23;;;;;;;1999.90;999.90;;;;;;;-144.65;100.00;64500.88;4992400;28;20133;-73
2022/09/05 06:12:05;;;;;;;1999.90;999.90;;;;;;;-144.65;100.00;64500.88;5010729;28;20030;-72
2022/09/05 06:15:02;;;;;;;1999.90;999.90;;;;;;;-144.65;100.00;64500.88;4993011;28;20033;-73
2022/09/05 06:17:48;;;;;;;1999.90;999.90;;;;;;;-144.65;100.00;64500.88;5010612;28;20041;-73
2022/09/05 06:20:47;;;;;;;1999.90;999.90;;;;;;;-144.65;100.00;64500.88;5010802;28;20058;-72
2022/09/05 06:23:47;;;;;;;1999.90;999.90;;;;;;;-144.65;100.00;64500.88;4976688;28;20491;-72
2022/09/05 06:26:49;;;;;;;1999.90;999.90;;;;;;;-144.65;100.00;64500.88;4998329;28;20116;-72
2022/09/05 06:29:27;;;;;;;1999.90;999.90;;;;;;;-144.65;100.00;64500.88;5009867;28;20026;-72
2022/09/05 06:32:07;;;;;;;1999.90;999.90;;;;;;;-144.65;100.00;64500.88;5003265;28;20096;-72
2022/09/05 06:34:51;;;;;;;1999.90;999.90;;;;;;;-144.65;100.00;64500.88;5006546;28;20049;-74
2022/09/05 06:37:38;;;;;;;1999.90;999.90;;;;;;;-144.65;100.00;64500.88;5009046;28;20116;-74
2022/09/05 06:40:10;;;;;;;1999.90;999.90;;;;;;;-144.65;100.00;64500.88;5009539;28;20073;-74
2022/09/05 06:42:50;;;;;;;1999.90;999.90;;;;;;;-144.65;100.00;64500.88;5009424;28;20057;-72
2022/09/05 06:45:42;;;;;;;1999.90;999.90;;;;;;;-144.65;100.00;64500.88;5011715;28;20026;-74
2022/09/05 06:48:26;;;;;;;1999.90;999.90;;;;;;;-144.65;100.00;64500.88;5010971;28;20116;-73
2022/09/05 06:51:03;;;;;;;1999.90;999.90;;;;;;;-144.65;100.00;64500.88;5015619;28;20045;-73
2022/09/05 06:53:43;;;;;;;1999.90;999.90;;;;;;;-144.65;100.00;64500.88;5029097;28;20033;-72
2022/09/05 06:56:38;;;;;;;1999.90;999.90;;;;;;;-144.65;100.00;64500.88;5029640;28;20387;-73
2022/09/05 06:59:19;;;;;;;1999.90;999.90;;;;;;;-144.65;100.00;64500.88;5027691;28;20034;-73
2022/09/05 07:01:55;;;;;;;1999.90;999.90;;;;;;;-144.65;100.00;64500.88;5027357;28;20036;-73
2022/09/05 07:04:32;;;;;;;;;;;;;;;-144.65;100.00;64500.88;5028365;28;20026;-72
2022/09/05 07:07:23;;;;;;;1999.90;999.90;;;;;;;-144.65;100.00;64500.88;5026889;28;19963;-73
2022/09/05 07:09:58;;;;;;;1999.90;999.90;;;;;;;-144.65;100.00;64500.88;5025374;28;20478;-73
2022/09/05 07:12:51;;;;;;;1999.90;999.90;;;;;;;-144.65;100.00;64500.88;5022446;28;20045;-74
2022/09/05 07:15:32;;;;;;;1999.90;999.90;;;;;;;-144.65;100.00;64500.88;5026704;28;20442;-73
2022/09/05 07:18:02;;;;;;;1999.90;999.90;;;;;;;-144.65;100.00;64500.88;5026789;28;20378;-73
2022/09/05 07:20:34;;;;;;;1999.90;999.90;;;;;;;-144.65;100.00;64500.88;5025389;28;20017;-73
2022/09/05 07:23:24;;;;;;;1999.90;999.90;;;;;;;-144.65;100.00;64500.88;5029198;28;20051;-72
2022/09/05 07:25:53;;;;;;;1999.90;999.90;;;;;;;-144.65;100.00;64500.88;5025708;28;20060;-73
2022/09/05 07:28:19;;;;;;;1999.90;999.90;;;;;;;-144.65;100.00;64500.88;5031220;28;20514;-75
2022/09/05 07:30:52;;;;;;;1999.90;999.90;;;;;;;-144.65;100.00;64500.88;5029699;28;20037;-74
2022/09/05 07:33:20;;;;;;;1999.90;999.90;;;;;;;-144.65;100.00;64500.88;5028173;28;20052;-72
2022/09/05 07:35:49;;;;;;;1999.90;999.90;;;;;;;-144.65;100.00;64500.88;5027287;28;20022;-73
2022/09/05 07:38:23;;;;;;;1999.90;999.90;;;;;;;-144.65;100.00;64500.88;5031076;28;20116;-73
2022/09/05 07:40:48;;;;;;;1999.90;999.90;;;;;;;-144.65;100.00;64500.88;5030686;28;20406;-74
2022/09/05 07:43:22;;;;;;;1999.90;999.90;;;;;;;-144.65;100.00;64500.88;5030842;28;20106;-73
2022/09/05 07:46:05;;;;;;;1999.90;999.90;;;;;;;-144.65;100.00;64500.88;5011419;28;20038;-74
2022/09/05 07:48:39;;;;;;;1999.90;999.90;;;;;;;-144.65;100.00;64500.88;5019375;28;20037;-73
2022/09/05 07:51:08;;;;;;;1999.90;999.90;;;;;;;-144.65;100.00;64500.88;5030851;28;20052;-73
2022/09/05 07:53:39;;;;;;;1999.90;999.90;;;;;;;-144.65;100.00;64500.88;5031154;28;20137;-73
2022/09/05 07:56:07;;;;;;;1999.90;999.90;;;;;;;-144.65;100.00;64500.88;5031639;28;20378;-73
2022/09/05 07:58:49;;;;;;;1999.90;999.90;;;;;;;-144.65;100.00;64500.88;5031052;28;20029;-73
2022/09/05 08:01:18;;;;;;;1999.90;999.90;;;;;;;-144.65;100.00;64500.88;5031182;28;20483;-72
2022/09/05 08:03:43;;;;;;;1999.90;999.90;;;;;;;-144.65;100.00;64500.88;5030850;28;20494;-72
2022/09/05 08:06:23;;;;;;;1999.90;999.90;;;;;;;-144.65;100.00;64500.88;5029322;28;20057;-73
2022/09/05 08:08:58;;;;;;;1999.90;999.90;;;;;;;-144.65;100.00;64500.88;5030168;28;20104;-73
2022/09/05 08:11:28;;;;;;;1999.90;999.90;;;;;;;-144.65;100.00;64500.88;5030904;28;20087;-74
2022/09/05 08:14:32;;;;;;;1999.90;999.90;;;;;;;-144.65;100.00;64500.88;5029892;28;20474;-73
2022/09/05 08:16:58;;;;;;;1999.90;999.90;;;;;;;-144.65;100.00;64500.88;4999731;28;20053;-73
2022/09/05 08:19:53;;;;;;;1999.90;999.90;;;;;;;-144.65;100.00;64500.88;5030640;28;20075;-73
2022/09/05 08:22:32;;;;;;;1999.90;999.90;;;;;;;-144.65;100.00;64500.88;5015397;28;20090;-72
2022/09/05 08:25:21;;;;;;;1999.90;999.90;;;;;;;-144.65;100.00;64500.88;5030956;28;20527;-72
2022/09/05 08:28:18;;;;;;;1999.90;999.90;;;;;;;-144.65;100.00;64500.88;5015968;28;20134;-73
2022/09/05 08:30:52;;;;;;;1999.90;999.90;;;;;;;-144.65;100.00;64500.88;5022626;28;20524;-72
2022/09/05 08:33:23;;;;;;;1999.90;999.90;;;;;;;-144.65;100.00;64500.88;5030906;28;20037;-72
2022/09/05 08:35:55;;;;;;;1999.90;999.90;;;;;;;-144.65;100.00;64500.88;5030995;28;21150;-73
2022/09/05 08:38:21;;;;;;;1999.90;999.90;;;;;;;-144.65;100.00;64500.88;5030855;28;20029;-73
2022/09/05 08:40:50;;;;;;;1999.90;999.90;;;;;;;-144.65;100.00;64500.88;5030238;28;20033;-73
2022/09/05 08:43:37;;;;;;;1999.90;999.90;;;;;;;-144.65;100.00;64500.88;5030347;28;20025;-73
2022/09/05 08:46:17;;;;;;;1999.90;999.90;;;;;;;-144.65;100.00;64500.88;5030536;28;20060;-73
2022/09/05 08:49:28;;;;;;;1999.90;999.90;;;;;;;-144.65;100.00;64500.88;5030558;28;20481;-71
2022/09/05 08:51:57;;;;;;;1999.90;999.90;;;;;;;-144.65;100.00;64500.88;5030045;28;20055;-72
2022/09/05 08:54:38;;;;;;;1999.90;999.90;;;;;;;-144.65;100.00;64500.88;5027994;28;20383;-71
2022/09/05 08:57:41;;;;;;;1999.90;999.90;;;;;;;-144.65;100.00;64500.88;5030913;28;20017;-71
2022/09/05 09:00:09;;;;;;;1999.90;999.90;;;;;;;-144.65;100.00;64500.88;4951297;28;20035;-71
2022/09/05 09:02:40;;;;;;;1999.90;999.90;;;;;;;-144.65;100.00;64500.88;5003252;28;20041;-71
2022/09/05 09:05:18;;;;;;;1999.90;999.90;;;;;;;-144.65;100.00;64500.88;5010462;28;20053;-71
2022/09/05 09:08:01;;;;;;;1999.90;999.90;;;;;;;-144.65;100.00;64500.88;5010477;28;20036;-71
2022/09/05 09:10:39;;;;;;;1999.90;999.90;;;;;;;-144.65;100.00;64500.88;5010246;28;20123;-71
2022/09/05 09:13:11;;;;;;;1999.90;999.90;;;;;;;-144.65;100.00;64500.88;5009003;28;20027;-71
2022/09/05 09:15:51;;;;;;;1999.90;999.90;;;;;;;-144.65;100.00;64500.88;5010405;28;20034;-71
2022/09/05 09:18:19;;;;;;;1999.90;999.90;;;;;;;-144.65;100.00;64500.88;5010231;28;20502;-71
2022/09/05 09:20:53;;;;;;;1999.90;999.90;;;;;;;-144.65;100.00;64500.88;5036801;28;20024;-71
2022/09/05 09:23:36;;;;;;;1999.90;999.90;;;;;;;-144.65;100.00;64500.88;5027346;28;20469;-71
2022/09/05 09:26:15;;;;;;;1999.90;999.90;;;;;;;-144.65;100.00;64500.88;5015977;28;20116;-71
2022/09/05 09:29:02;;;;;;;1999.90;999.90;;;;;;;-144.65;100.00;64500.88;5010844;28;20080;-71
2022/09/05 09:31:51;;;;;;;1999.90;999.90;;;;;;;-144.65;100.00;64500.88;5016905;28;20038;-71
2022/09/05 09:34:25;;;;;;;1999.90;999.90;;;;;;;-144.65;100.00;64500.88;5029218;28;20029;-71
2022/09/05 09:37:15;;;;;;;1999.90;999.90;;;;;;;-144.65;100.00;64500.88;5028900;28;20095;-71
2022/09/05 09:40:05;;;;;;;1999.90;999.90;;;;;;;-144.65;100.00;64500.88;5030506;28;20168;-71
2022/09/05 09:42:54;;;;;;;1999.90;999.90;;;;;;;-144.65;100.00;64500.88;5029802;28;20108;-71
2022/09/05 09:45:32;;;;;;;1999.90;999.90;;;;;;;-144.65;100.00;64500.88;5030412;28;20117;-71
2022/09/05 09:48:00;;;;;;;1999.90;999.90;;;;;;;-144.65;100.00;64500.88;5030628;28;20493;-71
2022/09/05 09:50:56;;;;;;;1999.90;999.90;;;;;;;-144.65;100.00;64500.88;5029961;28;20092;-71
2022/09/05 09:53:34;;;;;;;1999.90;999.90;;;;;;;-144.65;100.00;64500.88;5030188;28;20064;-71
2022/09/05 09:56:38;;;;;;;1999.90;999.90;;;;;;;-144.65;100.00;64500.88;5030441;28;20022;-71
2022/09/05 09:59:41;;;;;;;1999.90;999.90;;;;;;;-144.65;100.00;64500.88;5029898;28;20036;-71
2022/09/05 10:02:19;;;;;;;1999.90;999.90;;;;;;;-144.65;100.00;64500.88;5029590;28;20028;-75
2022/09/05 10:05:20;;;;;;;1999.90;999.90;;;;;;;-144.65;100.00;64500.88;5030592;28;20471;-79
2022/09/05 10:08:10;;;;;;;1999.90;999.90;;;;;;;-144.65;100.00;64500.88;4966679;28;20026;-76
2022/09/05 10:11:03;;;;;;;1999.90;999.90;;;;;;;-144.65;100.00;64500.88;5010814;28;20131;-75
2022/09/05 10:13:59;;;;;;;1999.90;999.90;;;;;;;-144.65;100.00;64500.88;5028231;28;20075;-75
2022/09/05 10:16:52;;;;;;;1999.90;999.90;;;;;;;-144.65;100.00;64500.88;5039096;28;20120;-76
2022/09/05 10:19:26;;;;;;;1999.90;999.90;;;;;;;-144.65;100.00;64500.88;5025394;28;20076;-75
2022/09/05 10:22:13;;;;;;;1999.90;999.90;;;;;;;-144.65;100.00;64500.88;5029400;28;20034;-74
2022/09/05 10:25:16;;;;;;;1999.90;999.90;;;;;;;-144.65;100.00;64500.88;5029855;28;20762;-75
2022/09/05 10:27:41;;;;;;;1999.90;999.90;;;;;;;-144.65;100.00;64500.88;5028412;28;20512;-74
2022/09/05 10:30:10;;;;;;;1999.90;999.90;;;;;;;-144.65;100.00;64500.88;5023602;28;20034;-74
2022/09/05 10:33:13;;;;;;;1999.90;999.90;;;;;;;-144.65;100.00;64500.88;5026521;28;20274;-74
2022/09/05 10:35:48;;;;;;;1999.90;999.90;;;;;;;-144.65;100.00;64500.88;5029391;28;20029;-75
2022/09/05 10:38:32;;;;;;;;;;;;;;;-144.65;100.00;64500.88;5030046;28;20037;-75
2022/09/05 10:41:09;;;;;;;1999.90;999.90;;;;;;;-144.65;100.00;64500.88;5027567;28;19960;-70
2022/09/05 10:44:02;;;;;;;1999.90;999.90;;;;;;;-144.65;100.00;64500.88;5029314;28;20494;-71
2022/09/05 10:47:08;;;;;;;1999.90;999.90;;;;;;;-144.65;100.00;64500.88;5029101;28;20033;-70
2022/09/05 10:49:41;;;;;;;1999.90;999.90;;;;;;;-144.65;100.00;64500.88;5025082;28;20033;-72
2022/09/05 10:52:06;;;;;;;1999.90;999.90;;;;;;;-144.65;100.00;64500.88;5028652;28;20053;-71
2022/09/05 10:54:44;;;;;;;1999.90;999.90;;;;;;;-144.65;100.00;64500.88;5028398;28;20041;-72
2022/09/05 10:57:31;;;;;;;1999.90;999.90;;;;;;;-144.65;100.00;64500.88;5013832;28;20022;-71
2022/09/05 11:00:06;;;;;;;1999.90;999.90;;;;;;;-144.65;100.00;64500.88;5030062;28;20037;-71
2022/09/05 11:02:40;;;;;;;1999.90;999.90;;;;;;;-144.65;100.00;64500.88;5030590;28;20034;-71
2022/09/05 11:05:25;;;;;;;1999.90;999.90;;;;;;;-144.65;100.00;64500.88;5030916;28;20022;-72
2022/09/05 11:07:53;;;;;;;1999.90;999.90;;;;;;;-144.65;100.00;64500.88;5035096;28;20034;-71
2022/09/05 11:10:48;;;;;;;1999.90;999.90;;;;;;;-144.65;100.00;64500.88;5031900;28;20171;-71
2022/09/05 11:13:16;;;;;;;1999.90;999.90;;;;;;;-144.65;100.00;64500.88;5031672;28;20087;-71
2022/09/05 11:16:02;;;;;;;1999.90;999.90;;;;;;;-144.65;100.00;64500.88;5032247;28;20033;-72
2022/09/05 11:18:38;;;;;;;1999.90;999.90;;;;;;;-144.65;100.00;64500.88;5031179;28;20036;-72
2022/09/05 11:21:23;;;;;;;1999.90;999.90;;;;;;;-144.65;100.00;64500.88;5032059;28;20505;-73
2022/09/05 11:24:01;;;;;;;1999.90;999.90;;;;;;;-144.65;100.00;64500.88;5032244;28;20072;-73
2022/09/05 11:26:29;;;;;;;1999.90;999.90;;;;;;;-144.65;100.00;64500.88;5028983;28;20087;-71
2022/09/05 11:28:59;;;;;;;1999.90;999.90;;;;;;;-144.65;100.00;64500.88;5030445;28;20025;-71
2022/09/05 11:31:45;;;;;;;1999.90;999.90;;;;;;;-144.65;100.00;64500.88;5031409;28;20445;-73
2022/09/05 11:34:38;;;;;;;1999.90;999.90;;;;;;;-144.65;100.00;64500.88;5025942;28;20072;-72
2022/09/05 11:37:17;;;;;;;1999.90;999.90;;;;;;;-144.65;100.00;64500.88;5028856;28;20568;-72